sensor_id;sensor_type;location;lat;lon;timestamp;pressure;altitude;pressure_sealevel;temperature;humidity
4024;BME280;2026;51.002;13.668;2023-02-16T00:00:04;99904.28;;;-0.81;89.68
4024;BME280;2026;51.002;13.668;2023-02-16T00:05:22;99907.59;;;-0.78;89.34
4024;BME280;2026;51.002;13.668;2023-02-16T00:10:29;99905.94;;;-0.68;88.94
4024;BME280;2026;51.002;13.668;2023-02-16T00:15:34;99903.25;;;-0.78;89.48
4024;BME280;2026;51.002;13.668;2023-02-16T00:20:37;99898.00;;;-0.76;88.74
4024;BME280;2026;51.002;13.668;2023-02-16T00:25:40;99903.72;;;-0.84;89.03
4024;BME280;2026;51.002;13.668;2023-02-16T00:30:45;99913.56;;;-0.89;89.08
4024;BME280;2026;51.002;13.668;2023-02-16T00:35:48;99906.19;;;-0.94;89.57
4024;BME280;2026;51.002;13.668;2023-02-16T00:40:51;99906.38;;;-1.20;90.00
4024;BME280;2026;51.002;13.668;2023-02-16T00:45:56;99894.22;;;-1.07;89.83
4024;BME280;2026;51.002;13.668;2023-02-16T00:50:59;99893.63;;;-1.10;90.06
4024;BME280;2026;51.002;13.668;2023-02-16T00:56:02;99903.59;;;-1.05;89.71
4024;BME280;2026;51.002;13.668;2023-02-16T01:01:10;99908.63;;;-1.04;89.46
4024;BME280;2026;51.002;13.668;2023-02-16T01:06:14;99899.63;;;-1.10;89.19
4024;BME280;2026;51.002;13.668;2023-02-16T01:11:35;99894.66;;;-1.24;90.16
4024;BME280;2026;51.002;13.668;2023-02-16T01:16:40;99886.03;;;-1.12;89.63
4024;BME280;2026;51.002;13.668;2023-02-16T01:21:44;99890.47;;;-1.14;89.71
4024;BME280;2026;51.002;13.668;2023-02-16T01:26:49;99890.13;;;-1.21;89.54
4024;BME280;2026;51.002;13.668;2023-02-16T01:31:54;99882.25;;;-1.19;90.00
4024;BME280;2026;51.002;13.668;2023-02-16T01:36:57;99869.03;;;-1.26;90.31
4024;BME280;2026;51.002;13.668;2023-02-16T01:42:24;99875.38;;;-1.30;89.77
4024;BME280;2026;51.002;13.668;2023-02-16T01:47:37;99870.69;;;-1.25;89.84
4024;BME280;2026;51.002;13.668;2023-02-16T01:52:44;99877.56;;;-1.37;90.29
4024;BME280;2026;51.002;13.668;2023-02-16T01:57:52;99876.63;;;-1.36;90.04
4024;BME280;2026;51.002;13.668;2023-02-16T02:03:00;99865.63;;;-1.38;89.73
4024;BME280;2026;51.002;13.668;2023-02-16T02:08:24;99864.00;;;-1.39;90.21
4024;BME280;2026;51.002;13.668;2023-02-16T02:13:31;99856.03;;;-1.47;90.99
4024;BME280;2026;51.002;13.668;2023-02-16T02:18:39;99862.38;;;-1.40;90.88
4024;BME280;2026;51.002;13.668;2023-02-16T02:24:04;99860.72;;;-1.41;91.00
4024;BME280;2026;51.002;13.668;2023-02-16T02:29:36;99871.81;;;-1.40;91.26
4024;BME280;2026;51.002;13.668;2023-02-16T02:35:00;99872.88;;;-1.43;90.32
4024;BME280;2026;51.002;13.668;2023-02-16T02:40:13;99863.16;;;-1.51;91.47
4024;BME280;2026;51.002;13.668;2023-02-16T02:45:23;99870.28;;;-1.54;91.51
4024;BME280;2026;51.002;13.668;2023-02-16T02:50:41;99861.19;;;-1.47;90.80
4024;BME280;2026;51.002;13.668;2023-02-16T02:56:11;99842.81;;;-1.54;90.69
4024;BME280;2026;51.002;13.668;2023-02-16T03:01:36;99849.69;;;-1.54;90.94
4024;BME280;2026;51.002;13.668;2023-02-16T03:06:44;99848.06;;;-1.55;90.96
4024;BME280;2026;51.002;13.668;2023-02-16T03:11:50;99842.91;;;-1.55;91.24
4024;BME280;2026;51.002;13.668;2023-02-16T03:17:16;99842.78;;;-1.65;91.05
4024;BME280;2026;51.002;13.668;2023-02-16T03:22:37;99843.19;;;-1.83;91.54
4024;BME280;2026;51.002;13.668;2023-02-16T03:27:59;99855.47;;;-1.75;91.95
4024;BME280;2026;51.002;13.668;2023-02-16T03:33:22;99862.31;;;-1.63;92.02
4024;BME280;2026;51.002;13.668;2023-02-16T03:38:26;99849.91;;;-1.69;91.86
4024;BME280;2026;51.002;13.668;2023-02-16T03:43:30;99862.53;;;-1.66;91.71
4024;BME280;2026;51.002;13.668;2023-02-16T03:48:35;99862.38;;;-1.76;92.43
4024;BME280;2026;51.002;13.668;2023-02-16T03:53:38;99855.72;;;-1.67;91.90
4024;BME280;2026;51.002;13.668;2023-02-16T03:58:41;99858.78;;;-1.62;91.88
4024;BME280;2026;51.002;13.668;2023-02-16T04:03:46;99857.78;;;-1.83;91.84
4024;BME280;2026;51.002;13.668;2023-02-16T04:08:49;99834.44;;;-1.80;93.05
4024;BME280;2026;51.002;13.668;2023-02-16T04:13:52;99852.63;;;-2.43;95.71
4024;BME280;2026;51.002;13.668;2023-02-16T04:18:56;99852.78;;;-2.09;94.90
4024;BME280;2026;51.002;13.668;2023-02-16T04:23:59;99867.94;;;-2.18;95.00
4024;BME280;2026;51.002;13.668;2023-02-16T04:29:03;99856.63;;;-2.15;93.99
4024;BME280;2026;51.002;13.668;2023-02-16T04:34:07;99851.56;;;-2.17;94.33
4024;BME280;2026;51.002;13.668;2023-02-16T04:39:10;99851.22;;;-2.36;95.15
4024;BME280;2026;51.002;13.668;2023-02-16T04:44:13;99841.03;;;-2.25;95.63
4024;BME280;2026;51.002;13.668;2023-02-16T04:49:17;99840.47;;;-2.41;95.90
4024;BME280;2026;51.002;13.668;2023-02-16T04:54:21;99839.25;;;-2.24;95.33
4024;BME280;2026;51.002;13.668;2023-02-16T04:59:24;99826.53;;;-2.01;94.53
4024;BME280;2026;51.002;13.668;2023-02-16T05:04:29;99840.53;;;-2.67;96.21
4024;BME280;2026;51.002;13.668;2023-02-16T05:09:32;99835.16;;;-2.51;96.82
4024;BME280;2026;51.002;13.668;2023-02-16T05:14:35;99838.69;;;-2.28;95.38
4024;BME280;2026;51.002;13.668;2023-02-16T05:19:48;99837.69;;;-2.14;94.63
4024;BME280;2026;51.002;13.668;2023-02-16T05:24:51;99833.59;;;-2.17;95.71
4024;BME280;2026;51.002;13.668;2023-02-16T05:29:54;99848.66;;;-2.36;95.32
4024;BME280;2026;51.002;13.668;2023-02-16T05:35:00;99847.13;;;-2.14;94.97
4024;BME280;2026;51.002;13.668;2023-02-16T05:40:03;99852.44;;;-2.05;94.86
4024;BME280;2026;51.002;13.668;2023-02-16T05:45:07;99852.56;;;-2.06;95.15
4024;BME280;2026;51.002;13.668;2023-02-16T05:50:11;99854.91;;;-2.03;94.95
4024;BME280;2026;51.002;13.668;2023-02-16T05:55:14;99851.78;;;-1.95;94.29
4024;BME280;2026;51.002;13.668;2023-02-16T06:00:19;99854.69;;;-2.00;94.19
4024;BME280;2026;51.002;13.668;2023-02-16T06:05:23;99860.69;;;-1.88;93.95
4024;BME280;2026;51.002;13.668;2023-02-16T06:10:26;99864.22;;;-1.78;95.11
4024;BME280;2026;51.002;13.668;2023-02-16T06:15:29;99864.72;;;-1.72;93.95
4024;BME280;2026;51.002;13.668;2023-02-16T06:20:33;99860.00;;;-1.90;95.20
4024;BME280;2026;51.002;13.668;2023-02-16T06:25:36;99859.56;;;-1.84;95.59
4024;BME280;2026;51.002;13.668;2023-02-16T06:30:40;99855.72;;;-1.67;95.63
4024;BME280;2026;51.002;13.668;2023-02-16T06:35:44;99866.91;;;-1.43;95.79
4024;BME280;2026;51.002;13.668;2023-02-16T06:40:50;99861.31;;;-1.37;96.11
4024;BME280;2026;51.002;13.668;2023-02-16T06:45:53;99870.09;;;-1.28;95.49
4024;BME280;2026;51.002;13.668;2023-02-16T06:50:57;99862.50;;;-1.30;95.89
4024;BME280;2026;51.002;13.668;2023-02-16T06:56:00;99858.16;;;-1.29;95.36
4024;BME280;2026;51.002;13.668;2023-02-16T07:01:03;99856.41;;;-1.17;96.86
4024;BME280;2026;51.002;13.668;2023-02-16T07:06:08;99858.75;;;-1.26;94.97
4024;BME280;2026;51.002;13.668;2023-02-16T07:11:13;99842.50;;;-1.15;94.33
4024;BME280;2026;51.002;13.668;2023-02-16T07:16:16;99846.25;;;-1.08;94.17
4024;BME280;2026;51.002;13.668;2023-02-16T07:21:20;99844.84;;;-0.89;94.27
4024;BME280;2026;51.002;13.668;2023-02-16T07:26:24;99839.69;;;-0.89;94.12
4024;BME280;2026;51.002;13.668;2023-02-16T07:31:27;99831.63;;;-0.73;94.14
4024;BME280;2026;51.002;13.668;2023-02-16T07:36:31;99847.41;;;-0.55;94.02
4024;BME280;2026;51.002;13.668;2023-02-16T07:41:34;99856.16;;;-0.46;93.32
4024;BME280;2026;51.002;13.668;2023-02-16T07:46:41;99863.63;;;-0.31;93.06
4024;BME280;2026;51.002;13.668;2023-02-16T07:51:45;99854.50;;;0.09;91.71
4024;BME280;2026;51.002;13.668;2023-02-16T07:56:48;99853.81;;;0.70;91.03
4024;BME280;2026;51.002;13.668;2023-02-16T08:01:51;99836.13;;;0.97;90.87
4024;BME280;2026;51.002;13.668;2023-02-16T08:06:55;99840.13;;;1.62;89.48
4024;BME280;2026;51.002;13.668;2023-02-16T08:11:58;99852.13;;;1.73;89.92
4024;BME280;2026;51.002;13.668;2023-02-16T08:17:01;99858.00;;;1.94;89.85
4024;BME280;2026;51.002;13.668;2023-02-16T08:22:07;99863.84;;;2.16;89.54
4024;BME280;2026;51.002;13.668;2023-02-16T08:27:10;99857.22;;;2.71;88.43
4024;BME280;2026;51.002;13.668;2023-02-16T08:32:13;99862.47;;;2.99;86.63
4024;BME280;2026;51.002;13.668;2023-02-16T08:37:17;99852.13;;;3.55;86.04
4024;BME280;2026;51.002;13.668;2023-02-16T08:42:20;99856.81;;;3.42;83.87
4024;BME280;2026;51.002;13.668;2023-02-16T08:47:23;99850.00;;;4.05;84.49
4024;BME280;2026;51.002;13.668;2023-02-16T08:52:27;99847.44;;;4.32;82.72
4024;BME280;2026;51.002;13.668;2023-02-16T08:57:32;99855.22;;;4.05;83.33
4024;BME280;2026;51.002;13.668;2023-02-16T09:02:35;99852.13;;;5.07;81.92
4024;BME280;2026;51.002;13.668;2023-02-16T09:07:39;99841.69;;;5.42;79.79
4024;BME280;2026;51.002;13.668;2023-02-16T09:12:42;99826.75;;;5.61;79.95
4024;BME280;2026;51.002;13.668;2023-02-16T09:17:49;99829.91;;;5.81;79.63
4024;BME280;2026;51.002;13.668;2023-02-16T09:22:53;99825.72;;;5.37;80.38
4024;BME280;2026;51.002;13.668;2023-02-16T09:27:56;99834.94;;;5.91;80.49
4024;BME280;2026;51.002;13.668;2023-02-16T09:32:59;99838.53;;;6.23;78.15
4024;BME280;2026;51.002;13.668;2023-02-16T09:38:04;99829.69;;;6.74;76.61
4024;BME280;2026;51.002;13.668;2023-02-16T09:43:17;99827.63;;;7.17;75.90
4024;BME280;2026;51.002;13.668;2023-02-16T09:48:33;99825.31;;;6.49;76.22
4024;BME280;2026;51.002;13.668;2023-02-16T09:53:40;99824.69;;;7.12;76.78
4024;BME280;2026;51.002;13.668;2023-02-16T09:58:50;99837.16;;;6.77;75.70
4024;BME280;2026;51.002;13.668;2023-02-16T10:04:06;99840.81;;;7.16;74.46
4024;BME280;2026;51.002;13.668;2023-02-16T10:09:16;99834.75;;;8.02;72.91
4024;BME280;2026;51.002;13.668;2023-02-16T10:14:26;99841.13;;;8.23;71.70
4024;BME280;2026;51.002;13.668;2023-02-16T10:19:37;99834.31;;;8.52;71.83
4024;BME280;2026;51.002;13.668;2023-02-16T10:24:48;99838.28;;;8.48;70.42
4024;BME280;2026;51.002;13.668;2023-02-16T10:29:54;99834.59;;;9.02;68.11
4024;BME280;2026;51.002;13.668;2023-02-16T10:35:05;99827.78;;;9.38;65.93
4024;BME280;2026;51.002;13.668;2023-02-16T10:40:28;99825.94;;;9.69;64.47
4024;BME280;2026;51.002;13.668;2023-02-16T10:45:37;99820.78;;;9.82;64.14
4024;BME280;2026;51.002;13.668;2023-02-16T10:50:45;99813.69;;;9.98;61.89
4024;BME280;2026;51.002;13.668;2023-02-16T10:55:52;99799.09;;;10.10;61.63
4024;BME280;2026;51.002;13.668;2023-02-16T11:01:00;99792.69;;;10.19;60.00
4024;BME280;2026;51.002;13.668;2023-02-16T11:06:12;99796.84;;;10.36;61.26
4024;BME280;2026;51.002;13.668;2023-02-16T11:11:18;99806.84;;;10.54;60.95
4024;BME280;2026;51.002;13.668;2023-02-16T11:16:23;99796.03;;;10.35;58.98
4024;BME280;2026;51.002;13.668;2023-02-16T11:21:44;99805.44;;;10.58;60.34
4024;BME280;2026;51.002;13.668;2023-02-16T11:26:58;99786.13;;;10.66;59.49
4024;BME280;2026;51.002;13.668;2023-02-16T11:32:05;99787.25;;;10.50;59.63
4024;BME280;2026;51.002;13.668;2023-02-16T11:37:13;99785.31;;;10.65;59.61
4024;BME280;2026;51.002;13.668;2023-02-16T11:42:26;99780.06;;;10.65;59.62
4024;BME280;2026;51.002;13.668;2023-02-16T11:47:32;99772.88;;;10.81;58.62
4024;BME280;2026;51.002;13.668;2023-02-16T11:52:36;99770.44;;;10.72;58.84
4024;BME280;2026;51.002;13.668;2023-02-16T11:57:40;99756.38;;;10.94;58.84
4024;BME280;2026;51.002;13.668;2023-02-16T12:03:05;99760.50;;;11.17;58.66
4024;BME280;2026;51.002;13.668;2023-02-16T12:08:34;99753.25;;;11.25;58.73
4024;BME280;2026;51.002;13.668;2023-02-16T12:13:48;99749.69;;;11.47;57.05
4024;BME280;2026;51.002;13.668;2023-02-16T12:19:06;99756.50;;;11.27;57.25
4024;BME280;2026;51.002;13.668;2023-02-16T12:24:19;99747.59;;;11.28;57.00
4024;BME280;2026;51.002;13.668;2023-02-16T12:29:38;99736.38;;;11.48;57.82
4024;BME280;2026;51.002;13.668;2023-02-16T12:34:53;99738.78;;;11.43;57.84
4024;BME280;2026;51.002;13.668;2023-02-16T12:40:10;99734.53;;;11.42;56.86
4024;BME280;2026;51.002;13.668;2023-02-16T12:45:21;99738.00;;;11.63;56.84
4024;BME280;2026;51.002;13.668;2023-02-16T12:50:27;99722.03;;;11.78;56.47
4024;BME280;2026;51.002;13.668;2023-02-16T12:55:34;99719.41;;;11.91;56.39
4024;BME280;2026;51.002;13.668;2023-02-16T13:00:43;99710.09;;;11.75;56.98
4024;BME280;2026;51.002;13.668;2023-02-16T13:05:55;99717.00;;;11.63;57.33
4024;BME280;2026;51.002;13.668;2023-02-16T13:11:04;99703.66;;;11.71;56.38
4024;BME280;2026;51.002;13.668;2023-02-16T13:16:14;99704.06;;;11.61;56.82
4024;BME280;2026;51.002;13.668;2023-02-16T13:21:43;99699.19;;;11.78;55.75
4024;BME280;2026;51.002;13.668;2023-02-16T13:27:03;99694.31;;;12.02;54.66
4024;BME280;2026;51.002;13.668;2023-02-16T13:32:33;99688.88;;;11.97;52.64
4024;BME280;2026;51.002;13.668;2023-02-16T13:37:54;99685.00;;;11.93;53.59
4024;BME280;2026;51.002;13.668;2023-02-16T13:43:13;99676.91;;;12.08;52.53
4024;BME280;2026;51.002;13.668;2023-02-16T13:48:23;99677.78;;;11.75;50.05
4024;BME280;2026;51.002;13.668;2023-02-16T13:53:32;99686.22;;;11.97;51.76
4024;BME280;2026;51.002;13.668;2023-02-16T13:58:38;99687.44;;;12.01;50.87
4024;BME280;2026;51.002;13.668;2023-02-16T14:03:43;99693.31;;;12.03;51.39
4024;BME280;2026;51.002;13.668;2023-02-16T14:14:33;99695.88;;;12.17;49.92
4024;BME280;2026;51.002;13.668;2023-02-16T14:19:38;99699.56;;;11.95;49.52
4024;BME280;2026;51.002;13.668;2023-02-16T14:24:41;99695.34;;;11.74;49.38
4024;BME280;2026;51.002;13.668;2023-02-16T14:29:53;99688.47;;;11.87;48.95
4024;BME280;2026;51.002;13.668;2023-02-16T14:35:05;99697.38;;;11.79;49.03
4024;BME280;2026;51.002;13.668;2023-02-16T14:40:15;99693.94;;;11.65;47.72
4024;BME280;2026;51.002;13.668;2023-02-16T14:45:49;99702.44;;;11.47;49.82
4024;BME280;2026;51.002;13.668;2023-02-16T14:51:15;99701.78;;;11.38;49.84
4024;BME280;2026;51.002;13.668;2023-02-16T14:56:39;99701.38;;;11.27;50.24
4024;BME280;2026;51.002;13.668;2023-02-16T15:01:44;99705.38;;;11.10;50.77
4024;BME280;2026;51.002;13.668;2023-02-16T15:06:49;99698.28;;;11.10;50.30
4024;BME280;2026;51.002;13.668;2023-02-16T15:11:54;99708.97;;;11.02;50.51
4024;BME280;2026;51.002;13.668;2023-02-16T15:17:23;99701.84;;;10.76;51.62
4024;BME280;2026;51.002;13.668;2023-02-16T15:22:29;99703.59;;;10.55;53.49
4024;BME280;2026;51.002;13.668;2023-02-16T15:27:32;99702.09;;;10.39;53.07
4024;BME280;2026;51.002;13.668;2023-02-16T15:32:35;99690.00;;;10.38;52.30
4024;BME280;2026;51.002;13.668;2023-02-16T15:37:40;99688.63;;;10.13;53.71
4024;BME280;2026;51.002;13.668;2023-02-16T15:42:43;99684.38;;;10.05;53.89
4024;BME280;2026;51.002;13.668;2023-02-16T15:47:46;99683.38;;;10.07;54.20
4024;BME280;2026;51.002;13.668;2023-02-16T15:52:51;99685.09;;;9.93;53.77
4024;BME280;2026;51.002;13.668;2023-02-16T15:57:55;99684.38;;;9.77;54.55
4024;BME280;2026;51.002;13.668;2023-02-16T16:03:00;99686.66;;;9.36;57.37
4024;BME280;2026;51.002;13.668;2023-02-16T16:08:06;99685.47;;;8.80;59.38
4024;BME280;2026;51.002;13.668;2023-02-16T16:13:17;99675.22;;;8.64;60.19
4024;BME280;2026;51.002;13.668;2023-02-16T16:18:39;99687.63;;;8.25;62.28
4024;BME280;2026;51.002;13.668;2023-02-16T16:23:57;99681.13;;;8.88;56.85
4024;BME280;2026;51.002;13.668;2023-02-16T16:29:01;99690.22;;;8.40;59.68
4024;BME280;2026;51.002;13.668;2023-02-16T16:34:06;99683.03;;;8.12;60.92
4024;BME280;2026;51.002;13.668;2023-02-16T16:39:23;99679.44;;;8.43;59.35
4024;BME280;2026;51.002;13.668;2023-02-16T16:44:31;99682.47;;;8.32;58.43
4024;BME280;2026;51.002;13.668;2023-02-16T16:49:35;99675.16;;;8.42;56.89
4024;BME280;2026;51.002;13.668;2023-02-16T16:54:40;99682.19;;;8.57;55.98
4024;BME280;2026;51.002;13.668;2023-02-16T16:59:44;99675.00;;;8.44;56.03
4024;BME280;2026;51.002;13.668;2023-02-16T17:04:48;99679.88;;;8.47;55.28
4024;BME280;2026;51.002;13.668;2023-02-16T17:09:52;99682.72;;;8.52;55.28
4024;BME280;2026;51.002;13.668;2023-02-16T17:14:56;99674.72;;;8.53;55.12
4024;BME280;2026;51.002;13.668;2023-02-16T17:20:00;99679.28;;;8.66;54.14
4024;BME280;2026;51.002;13.668;2023-02-16T17:25:05;99674.00;;;8.60;53.41
4024;BME280;2026;51.002;13.668;2023-02-16T17:30:10;99682.28;;;8.48;53.64
4024;BME280;2026;51.002;13.668;2023-02-16T17:35:13;99680.56;;;8.55;53.75
4024;BME280;2026;51.002;13.668;2023-02-16T17:40:20;99669.78;;;8.44;54.32
4024;BME280;2026;51.002;13.668;2023-02-16T17:45:24;99665.09;;;8.39;54.19
4024;BME280;2026;51.002;13.668;2023-02-16T17:50:27;99659.09;;;8.60;52.44
4024;BME280;2026;51.002;13.668;2023-02-16T17:55:33;99654.31;;;8.64;52.43
4024;BME280;2026;51.002;13.668;2023-02-16T18:00:36;99664.63;;;8.50;52.91
4024;BME280;2026;51.002;13.668;2023-02-16T18:05:39;99652.09;;;8.61;51.46
4024;BME280;2026;51.002;13.668;2023-02-16T18:10:45;99650.84;;;8.41;52.04
4024;BME280;2026;51.002;13.668;2023-02-16T18:15:49;99652.22;;;8.22;53.04
4024;BME280;2026;51.002;13.668;2023-02-16T18:20:52;99656.00;;;8.35;52.16
4024;BME280;2026;51.002;13.668;2023-02-16T18:25:56;99675.91;;;8.21;52.62
4024;BME280;2026;51.002;13.668;2023-02-16T18:31:00;99666.91;;;8.23;51.47
4024;BME280;2026;51.002;13.668;2023-02-16T18:36:04;99664.47;;;8.37;51.75
4024;BME280;2026;51.002;13.668;2023-02-16T18:41:09;99662.56;;;8.31;51.61
4024;BME280;2026;51.002;13.668;2023-02-16T18:46:12;99663.91;;;8.26;53.03
4024;BME280;2026;51.002;13.668;2023-02-16T18:51:15;99666.34;;;8.28;53.24
4024;BME280;2026;51.002;13.668;2023-02-16T18:56:20;99664.91;;;8.25;54.42
4024;BME280;2026;51.002;13.668;2023-02-16T19:01:27;99674.66;;;8.17;54.96
4024;BME280;2026;51.002;13.668;2023-02-16T19:06:31;99683.94;;;8.19;55.50
4024;BME280;2026;51.002;13.668;2023-02-16T19:11:36;99688.34;;;8.19;56.81
4024;BME280;2026;51.002;13.668;2023-02-16T19:16:39;99694.72;;;8.16;58.48
4024;BME280;2026;51.002;13.668;2023-02-16T19:21:42;99701.94;;;8.14;59.57
4024;BME280;2026;51.002;13.668;2023-02-16T19:26:47;99698.16;;;8.17;61.57
4024;BME280;2026;51.002;13.668;2023-02-16T19:31:50;99681.84;;;8.14;62.79
4024;BME280;2026;51.002;13.668;2023-02-16T19:36:53;99675.91;;;8.21;63.69
4024;BME280;2026;51.002;13.668;2023-02-16T19:41:57;99679.69;;;8.18;64.82
4024;BME280;2026;51.002;13.668;2023-02-16T19:47:01;99674.28;;;8.20;66.08
4024;BME280;2026;51.002;13.668;2023-02-16T19:52:04;99663.13;;;8.26;67.13
4024;BME280;2026;51.002;13.668;2023-02-16T19:57:09;99674.84;;;8.15;67.32
4024;BME280;2026;51.002;13.668;2023-02-16T20:02:12;99682.66;;;8.15;68.23
4024;BME280;2026;51.002;13.668;2023-02-16T20:07:16;99676.34;;;8.24;68.72
4024;BME280;2026;51.002;13.668;2023-02-16T20:12:20;99682.75;;;8.22;69.16
4024;BME280;2026;51.002;13.668;2023-02-16T20:17:23;99682.41;;;8.25;77.10
4024;BME280;2026;51.002;13.668;2023-02-16T20:22:26;99678.22;;;8.46;71.14
4024;BME280;2026;51.002;13.668;2023-02-16T20:27:30;99678.69;;;8.34;71.30
4024;BME280;2026;51.002;13.668;2023-02-16T20:32:34;99668.81;;;8.30;71.13
4024;BME280;2026;51.002;13.668;2023-02-16T20:37:37;99676.81;;;8.28;71.07
4024;BME280;2026;51.002;13.668;2023-02-16T20:42:41;99684.38;;;8.38;70.96
4024;BME280;2026;51.002;13.668;2023-02-16T20:47:44;99678.69;;;8.34;70.79
4024;BME280;2026;51.002;13.668;2023-02-16T20:52:47;99677.44;;;8.45;71.11
4024;BME280;2026;51.002;13.668;2023-02-16T20:57:51;99672.56;;;8.42;70.84
4024;BME280;2026;51.002;13.668;2023-02-16T21:02:54;99674.19;;;8.43;71.06
4024;BME280;2026;51.002;13.668;2023-02-16T21:07:57;99671.38;;;8.45;71.26
4024;BME280;2026;51.002;13.668;2023-02-16T21:13:02;99661.75;;;8.45;71.80
4024;BME280;2026;51.002;13.668;2023-02-16T21:18:04;99650.59;;;8.51;71.57
4024;BME280;2026;51.002;13.668;2023-02-16T21:23:07;99651.31;;;8.45;71.68
4024;BME280;2026;51.002;13.668;2023-02-16T21:28:12;99647.69;;;8.46;71.78
4024;BME280;2026;51.002;13.668;2023-02-16T21:33:15;99644.91;;;8.48;72.26
4024;BME280;2026;51.002;13.668;2023-02-16T21:38:18;99638.84;;;8.47;71.75
4024;BME280;2026;51.002;13.668;2023-02-16T21:43:22;99631.19;;;8.46;72.73
4024;BME280;2026;51.002;13.668;2023-02-16T21:48:25;99637.16;;;8.39;72.79
4024;BME280;2026;51.002;13.668;2023-02-16T21:53:45;99623.66;;;8.36;73.61
4024;BME280;2026;51.002;13.668;2023-02-16T21:58:50;99624.66;;;8.35;73.06
4024;BME280;2026;51.002;13.668;2023-02-16T22:03:53;99609.59;;;8.37;73.17
4024;BME280;2026;51.002;13.668;2023-02-16T22:08:59;99623.56;;;8.44;72.94
4024;BME280;2026;51.002;13.668;2023-02-16T22:14:04;99608.97;;;8.35;74.18
4024;BME280;2026;51.002;13.668;2023-02-16T22:19:09;99605.44;;;8.43;73.28
4024;BME280;2026;51.002;13.668;2023-02-16T22:24:14;99607.75;;;8.52;72.72
4024;BME280;2026;51.002;13.668;2023-02-16T22:29:19;99598.03;;;8.46;73.24
4024;BME280;2026;51.002;13.668;2023-02-16T22:34:22;99594.31;;;8.55;72.96
4024;BME280;2026;51.002;13.668;2023-02-16T22:39:25;99594.69;;;8.52;73.53
4024;BME280;2026;51.002;13.668;2023-02-16T22:44:29;99598.94;;;8.53;73.47
4024;BME280;2026;51.002;13.668;2023-02-16T22:49:32;99598.81;;;8.62;73.52
4024;BME280;2026;51.002;13.668;2023-02-16T22:54:35;99593.03;;;8.66;73.25
4024;BME280;2026;51.002;13.668;2023-02-16T22:59:39;99579.41;;;8.71;73.77
4024;BME280;2026;51.002;13.668;2023-02-16T23:04:42;99566.88;;;8.66;73.94
4024;BME280;2026;51.002;13.668;2023-02-16T23:09:45;99556.00;;;8.63;74.18
4024;BME280;2026;51.002;13.668;2023-02-16T23:14:49;99554.19;;;8.63;74.45
4024;BME280;2026;51.002;13.668;2023-02-16T23:19:52;99550.16;;;8.61;74.34
4024;BME280;2026;51.002;13.668;2023-02-16T23:24:55;99551.38;;;8.43;75.30
4024;BME280;2026;51.002;13.668;2023-02-16T23:30:13;99551.25;;;8.51;75.24
4024;BME280;2026;51.002;13.668;2023-02-16T23:35:17;99538.19;;;8.51;75.42
4024;BME280;2026;51.002;13.668;2023-02-16T23:40:20;99540.44;;;8.54;75.29
4024;BME280;2026;51.002;13.668;2023-02-16T23:45:24;99531.97;;;8.52;75.23
4024;BME280;2026;51.002;13.668;2023-02-16T23:50:27;99531.53;;;8.49;75.38
4024;BME280;2026;51.002;13.668;2023-02-16T23:55:30;99519.41;;;8.63;74.69
